sensor_id;sensor_type;location;lat;lon;timestamp;temperature;humidity
4376;DHT22;2202;50.866;12.750;2023-06-10T00:00:24;15.50;81.20
4376;DHT22;2202;50.866;12.750;2023-06-10T00:02:51;15.50;81.40
4376;DHT22;2202;50.866;12.750;2023-06-10T00:05:19;15.50;81.80
4376;DHT22;2202;50.866;12.750;2023-06-10T00:07:47;15.40;81.80
4376;DHT22;2202;50.866;12.750;2023-06-10T00:10:15;15.40;82.60
4376;DHT22;2202;50.866;12.750;2023-06-10T00:12:41;15.30;83.00
4376;DHT22;2202;50.866;12.750;2023-06-10T00:15:10;15.20;83.00
4376;DHT22;2202;50.866;12.750;2023-06-10T00:17:37;15.20;83.00
4376;DHT22;2202;50.866;12.750;2023-06-10T00:20:06;15.20;83.60
4376;DHT22;2202;50.866;12.750;2023-06-10T00:22:35;15.10;83.60
4376;DHT22;2202;50.866;12.750;2023-06-10T00:25:03;15.10;84.00
4376;DHT22;2202;50.866;12.750;2023-06-10T00:27:30;15.10;84.60
4376;DHT22;2202;50.866;12.750;2023-06-10T00:30:01;15.00;85.00
4376;DHT22;2202;50.866;12.750;2023-06-10T00:32:29;15.00;85.00
4376;DHT22;2202;50.866;12.750;2023-06-10T00:34:56;14.90;85.40
4376;DHT22;2202;50.866;12.750;2023-06-10T00:37:23;14.90;85.60
4376;DHT22;2202;50.866;12.750;2023-06-10T00:39:51;14.80;85.60
4376;DHT22;2202;50.866;12.750;2023-06-10T00:42:19;14.80;85.60
4376;DHT22;2202;50.866;12.750;2023-06-10T00:44:46;14.70;85.80
4376;DHT22;2202;50.866;12.750;2023-06-10T00:47:13;14.70;85.80
4376;DHT22;2202;50.866;12.750;2023-06-10T00:49:40;14.60;86.80
4376;DHT22;2202;50.866;12.750;2023-06-10T00:52:08;14.60;87.60
4376;DHT22;2202;50.866;12.750;2023-06-10T00:54:36;14.50;88.20
4376;DHT22;2202;50.866;12.750;2023-06-10T00:57:05;14.50;88.20
4376;DHT22;2202;50.866;12.750;2023-06-10T00:59:32;14.50;88.80
4376;DHT22;2202;50.866;12.750;2023-06-10T01:02:00;14.50;88.60
4376;DHT22;2202;50.866;12.750;2023-06-10T01:04:28;14.50;88.20
4376;DHT22;2202;50.866;12.750;2023-06-10T01:07:00;14.50;88.40
4376;DHT22;2202;50.866;12.750;2023-06-10T01:09:36;14.50;88.20
4376;DHT22;2202;50.866;12.750;2023-06-10T01:12:12;14.50;88.40
4376;DHT22;2202;50.866;12.750;2023-06-10T01:14:40;14.40;88.40
4376;DHT22;2202;50.866;12.750;2023-06-10T01:17:10;14.40;88.60
4376;DHT22;2202;50.866;12.750;2023-06-10T01:19:37;14.40;88.60
4376;DHT22;2202;50.866;12.750;2023-06-10T01:22:07;14.40;88.20
4376;DHT22;2202;50.866;12.750;2023-06-10T01:24:36;14.30;87.80
4376;DHT22;2202;50.866;12.750;2023-06-10T01:27:09;14.30;87.80
4376;DHT22;2202;50.866;12.750;2023-06-10T01:29:43;14.30;88.20
4376;DHT22;2202;50.866;12.750;2023-06-10T01:32:18;14.30;89.20
4376;DHT22;2202;50.866;12.750;2023-06-10T01:34:48;14.20;89.60
4376;DHT22;2202;50.866;12.750;2023-06-10T01:37:19;14.20;90.00
4376;DHT22;2202;50.866;12.750;2023-06-10T01:39:46;14.20;90.40
4376;DHT22;2202;50.866;12.750;2023-06-10T01:42:14;14.10;90.60
4376;DHT22;2202;50.866;12.750;2023-06-10T01:44:41;14.10;90.70
4376;DHT22;2202;50.866;12.750;2023-06-10T01:47:08;14.10;90.70
4376;DHT22;2202;50.866;12.750;2023-06-10T01:49:35;14.10;90.80
4376;DHT22;2202;50.866;12.750;2023-06-10T01:52:02;14.00;90.70
4376;DHT22;2202;50.866;12.750;2023-06-10T01:54:31;14.00;90.60
4376;DHT22;2202;50.866;12.750;2023-06-10T01:57:00;14.00;90.60
4376;DHT22;2202;50.866;12.750;2023-06-10T01:59:27;13.90;90.60
4376;DHT22;2202;50.866;12.750;2023-06-10T02:01:54;13.90;90.80
4376;DHT22;2202;50.866;12.750;2023-06-10T02:04:21;13.80;90.70
4376;DHT22;2202;50.866;12.750;2023-06-10T02:06:48;13.80;90.70
4376;DHT22;2202;50.866;12.750;2023-06-10T02:09:15;13.80;90.70
4376;DHT22;2202;50.866;12.750;2023-06-10T02:11:45;13.80;90.70
4376;DHT22;2202;50.866;12.750;2023-06-10T02:14:12;13.70;91.00
4376;DHT22;2202;50.866;12.750;2023-06-10T02:16:38;13.70;91.10
4376;DHT22;2202;50.866;12.750;2023-06-10T02:19:06;13.60;91.40
4376;DHT22;2202;50.866;12.750;2023-06-10T02:21:33;13.60;91.60
4376;DHT22;2202;50.866;12.750;2023-06-10T02:24:00;13.60;92.10
4376;DHT22;2202;50.866;12.750;2023-06-10T02:26:27;13.60;92.40
4376;DHT22;2202;50.866;12.750;2023-06-10T02:28:55;13.70;92.60
4376;DHT22;2202;50.866;12.750;2023-06-10T02:31:22;13.70;92.60
4376;DHT22;2202;50.866;12.750;2023-06-10T02:33:50;13.80;92.50
4376;DHT22;2202;50.866;12.750;2023-06-10T02:36:17;13.80;92.30
4376;DHT22;2202;50.866;12.750;2023-06-10T02:38:44;13.80;92.10
4376;DHT22;2202;50.866;12.750;2023-06-10T02:41:11;13.80;91.90
4376;DHT22;2202;50.866;12.750;2023-06-10T02:43:38;13.80;91.90
4376;DHT22;2202;50.866;12.750;2023-06-10T02:46:06;13.80;91.90
4376;DHT22;2202;50.866;12.750;2023-06-10T02:48:40;13.80;92.00
4376;DHT22;2202;50.866;12.750;2023-06-10T02:51:07;13.80;92.00
4376;DHT22;2202;50.866;12.750;2023-06-10T02:53:34;13.80;92.10
4376;DHT22;2202;50.866;12.750;2023-06-10T02:56:01;13.80;92.10
4376;DHT22;2202;50.866;12.750;2023-06-10T02:58:28;13.70;92.10
4376;DHT22;2202;50.866;12.750;2023-06-10T03:00:55;13.70;92.30
4376;DHT22;2202;50.866;12.750;2023-06-10T03:03:23;13.70;92.30
4376;DHT22;2202;50.866;12.750;2023-06-10T03:05:51;13.70;92.20
4376;DHT22;2202;50.866;12.750;2023-06-10T03:08:18;13.70;92.40
4376;DHT22;2202;50.866;12.750;2023-06-10T03:10:44;13.70;92.60
4376;DHT22;2202;50.866;12.750;2023-06-10T03:13:11;13.80;92.80
4376;DHT22;2202;50.866;12.750;2023-06-10T03:15:39;13.80;93.00
4376;DHT22;2202;50.866;12.750;2023-06-10T03:18:07;13.80;93.20
4376;DHT22;2202;50.866;12.750;2023-06-10T03:20:35;13.90;93.20
4376;DHT22;2202;50.866;12.750;2023-06-10T03:23:04;13.90;93.30
4376;DHT22;2202;50.866;12.750;2023-06-10T03:25:31;14.00;93.30
4376;DHT22;2202;50.866;12.750;2023-06-10T03:27:58;14.00;93.50
4376;DHT22;2202;50.866;12.750;2023-06-10T03:30:25;14.10;93.60
4376;DHT22;2202;50.866;12.750;2023-06-10T03:32:52;14.20;93.60
4376;DHT22;2202;50.866;12.750;2023-06-10T03:35:19;14.20;93.50
4376;DHT22;2202;50.866;12.750;2023-06-10T03:37:47;14.30;93.40
4376;DHT22;2202;50.866;12.750;2023-06-10T03:40:14;14.40;93.40
4376;DHT22;2202;50.866;12.750;2023-06-10T03:42:41;14.50;93.30
4376;DHT22;2202;50.866;12.750;2023-06-10T03:45:10;14.60;93.20
4376;DHT22;2202;50.866;12.750;2023-06-10T03:47:37;14.70;93.10
4376;DHT22;2202;50.866;12.750;2023-06-10T03:50:06;14.80;92.90
4376;DHT22;2202;50.866;12.750;2023-06-10T03:52:35;14.90;92.60
4376;DHT22;2202;50.866;12.750;2023-06-10T03:55:03;15.00;92.50
4376;DHT22;2202;50.866;12.750;2023-06-10T03:57:30;15.10;92.30
4376;DHT22;2202;50.866;12.750;2023-06-10T03:59:58;15.20;91.90
4376;DHT22;2202;50.866;12.750;2023-06-10T04:02:24;15.30;91.80
4376;DHT22;2202;50.866;12.750;2023-06-10T04:04:51;15.40;91.50
4376;DHT22;2202;50.866;12.750;2023-06-10T04:07:18;15.50;91.50
4376;DHT22;2202;50.866;12.750;2023-06-10T04:09:45;15.60;91.30
4376;DHT22;2202;50.866;12.750;2023-06-10T04:12:14;15.60;91.30
4376;DHT22;2202;50.866;12.750;2023-06-10T04:14:42;15.60;91.40
4376;DHT22;2202;50.866;12.750;2023-06-10T04:17:09;15.70;91.20
4376;DHT22;2202;50.866;12.750;2023-06-10T04:19:36;15.70;91.00
4376;DHT22;2202;50.866;12.750;2023-06-10T04:22:03;15.70;91.00
4376;DHT22;2202;50.866;12.750;2023-06-10T04:24:30;15.70;91.00
4376;DHT22;2202;50.866;12.750;2023-06-10T04:26:57;15.80;91.00
4376;DHT22;2202;50.866;12.750;2023-06-10T04:29:25;15.80;91.00
4376;DHT22;2202;50.866;12.750;2023-06-10T04:31:52;15.80;91.00
4376;DHT22;2202;50.866;12.750;2023-06-10T04:34:19;15.80;91.10
4376;DHT22;2202;50.866;12.750;2023-06-10T04:36:46;15.80;91.10
4376;DHT22;2202;50.866;12.750;2023-06-10T04:39:13;15.80;91.10
4376;DHT22;2202;50.866;12.750;2023-06-10T04:41:42;15.80;91.20
4376;DHT22;2202;50.866;12.750;2023-06-10T04:44:09;15.80;91.30
4376;DHT22;2202;50.866;12.750;2023-06-10T04:46:37;15.80;91.70
4376;DHT22;2202;50.866;12.750;2023-06-10T04:49:04;15.80;91.50
4376;DHT22;2202;50.866;12.750;2023-06-10T04:51:31;15.80;91.50
4376;DHT22;2202;50.866;12.750;2023-06-10T04:53:58;15.70;91.90
4376;DHT22;2202;50.866;12.750;2023-06-10T04:56:28;15.60;91.90
4376;DHT22;2202;50.866;12.750;2023-06-10T04:58:55;15.70;91.70
4376;DHT22;2202;50.866;12.750;2023-06-10T05:01:22;15.80;91.50
4376;DHT22;2202;50.866;12.750;2023-06-10T05:03:50;15.80;91.70
4376;DHT22;2202;50.866;12.750;2023-06-10T05:06:17;15.90;91.10
4376;DHT22;2202;50.866;12.750;2023-06-10T05:08:44;16.00;91.00
4376;DHT22;2202;50.866;12.750;2023-06-10T05:11:11;16.00;91.20
4376;DHT22;2202;50.866;12.750;2023-06-10T05:13:38;16.10;91.20
4376;DHT22;2202;50.866;12.750;2023-06-10T05:16:06;16.10;91.10
4376;DHT22;2202;50.866;12.750;2023-06-10T05:18:33;16.20;91.30
4376;DHT22;2202;50.866;12.750;2023-06-10T05:21:02;16.20;91.20
4376;DHT22;2202;50.866;12.750;2023-06-10T05:23:29;16.20;90.90
4376;DHT22;2202;50.866;12.750;2023-06-10T05:25:56;16.30;90.80
4376;DHT22;2202;50.866;12.750;2023-06-10T05:28:23;16.30;90.90
4376;DHT22;2202;50.866;12.750;2023-06-10T05:30:51;16.30;90.80
4376;DHT22;2202;50.866;12.750;2023-06-10T05:33:18;16.30;90.80
4376;DHT22;2202;50.866;12.750;2023-06-10T05:35:45;16.40;90.90
4376;DHT22;2202;50.866;12.750;2023-06-10T05:38:13;16.40;90.90
4376;DHT22;2202;50.866;12.750;2023-06-10T05:40:40;16.40;90.70
4376;DHT22;2202;50.866;12.750;2023-06-10T05:43:06;16.30;90.90
4376;DHT22;2202;50.866;12.750;2023-06-10T05:45:34;16.30;91.30
4376;DHT22;2202;50.866;12.750;2023-06-10T05:48:01;16.30;91.20
4376;DHT22;2202;50.866;12.750;2023-06-10T05:50:28;16.30;91.10
4376;DHT22;2202;50.866;12.750;2023-06-10T05:52:55;16.30;91.40
4376;DHT22;2202;50.866;12.750;2023-06-10T05:55:24;16.30;91.40
4376;DHT22;2202;50.866;12.750;2023-06-10T05:57:58;16.40;91.30
4376;DHT22;2202;50.866;12.750;2023-06-10T06:00:26;16.50;91.00
4376;DHT22;2202;50.866;12.750;2023-06-10T06:02:53;16.40;91.10
4376;DHT22;2202;50.866;12.750;2023-06-10T06:05:21;16.50;91.10
4376;DHT22;2202;50.866;12.750;2023-06-10T06:07:47;16.50;91.20
4376;DHT22;2202;50.866;12.750;2023-06-10T06:10:16;16.60;91.20
4376;DHT22;2202;50.866;12.750;2023-06-10T06:12:44;16.70;90.80
4376;DHT22;2202;50.866;12.750;2023-06-10T06:15:11;16.80;90.60
4376;DHT22;2202;50.866;12.750;2023-06-10T06:17:38;16.90;90.50
4376;DHT22;2202;50.866;12.750;2023-06-10T06:20:06;17.10;90.00
4376;DHT22;2202;50.866;12.750;2023-06-10T06:22:34;17.30;89.20
4376;DHT22;2202;50.866;12.750;2023-06-10T06:25:01;17.50;87.60
4376;DHT22;2202;50.866;12.750;2023-06-10T06:27:28;17.60;87.20
4376;DHT22;2202;50.866;12.750;2023-06-10T06:29:56;17.70;86.40
4376;DHT22;2202;50.866;12.750;2023-06-10T06:32:23;17.80;85.60
4376;DHT22;2202;50.866;12.750;2023-06-10T06:34:53;18.00;84.80
4376;DHT22;2202;50.866;12.750;2023-06-10T06:37:21;18.30;85.40
4376;DHT22;2202;50.866;12.750;2023-06-10T06:39:48;18.50;83.20
4376;DHT22;2202;50.866;12.750;2023-06-10T06:42:15;18.80;81.60
4376;DHT22;2202;50.866;12.750;2023-06-10T06:44:42;19.20;85.60
4376;DHT22;2202;50.866;12.750;2023-06-10T06:47:10;19.70;79.60
4376;DHT22;2202;50.866;12.750;2023-06-10T06:49:37;20.00;76.60
4376;DHT22;2202;50.866;12.750;2023-06-10T06:52:04;20.10;76.40
4376;DHT22;2202;50.866;12.750;2023-06-10T06:54:31;20.20;76.40
4376;DHT22;2202;50.866;12.750;2023-06-10T06:56:58;20.50;73.20
4376;DHT22;2202;50.866;12.750;2023-06-10T06:59:25;20.70;77.00
4376;DHT22;2202;50.866;12.750;2023-06-10T07:01:52;20.90;72.80
4376;DHT22;2202;50.866;12.750;2023-06-10T07:04:21;21.20;73.00
4376;DHT22;2202;50.866;12.750;2023-06-10T07:06:48;21.30;69.60
4376;DHT22;2202;50.866;12.750;2023-06-10T07:09:15;21.20;71.20
4376;DHT22;2202;50.866;12.750;2023-06-10T07:11:42;21.30;72.00
4376;DHT22;2202;50.866;12.750;2023-06-10T07:14:09;21.50;70.80
4376;DHT22;2202;50.866;12.750;2023-06-10T07:16:36;21.70;69.40
4376;DHT22;2202;50.866;12.750;2023-06-10T07:19:02;22.00;67.40
4376;DHT22;2202;50.866;12.750;2023-06-10T07:21:31;22.20;65.00
4376;DHT22;2202;50.866;12.750;2023-06-10T07:23:59;22.20;64.40
4376;DHT22;2202;50.866;12.750;2023-06-10T07:26:26;22.30;66.60
4376;DHT22;2202;50.866;12.750;2023-06-10T07:28:53;22.60;65.60
4376;DHT22;2202;50.866;12.750;2023-06-10T07:31:20;22.60;65.40
4376;DHT22;2202;50.866;12.750;2023-06-10T07:33:46;22.80;66.40
4376;DHT22;2202;50.866;12.750;2023-06-10T07:36:13;23.00;65.80
4376;DHT22;2202;50.866;12.750;2023-06-10T07:38:41;23.00;63.00
4376;DHT22;2202;50.866;12.750;2023-06-10T07:41:08;22.90;64.80
4376;DHT22;2202;50.866;12.750;2023-06-10T07:43:36;22.90;64.20
4376;DHT22;2202;50.866;12.750;2023-06-10T07:46:03;23.00;64.60
4376;DHT22;2202;50.866;12.750;2023-06-10T07:48:30;23.10;64.20
4376;DHT22;2202;50.866;12.750;2023-06-10T07:50:57;22.90;67.00
4376;DHT22;2202;50.866;12.750;2023-06-10T07:53:25;23.20;65.80
4376;DHT22;2202;50.866;12.750;2023-06-10T07:55:53;23.50;62.60
4376;DHT22;2202;50.866;12.750;2023-06-10T07:58:20;23.70;61.80
4376;DHT22;2202;50.866;12.750;2023-06-10T08:00:47;23.50;65.60
4376;DHT22;2202;50.866;12.750;2023-06-10T08:03:14;23.30;63.20
4376;DHT22;2202;50.866;12.750;2023-06-10T08:05:41;23.10;64.40
4376;DHT22;2202;50.866;12.750;2023-06-10T08:08:08;23.50;66.80
4376;DHT22;2202;50.866;12.750;2023-06-10T08:10:35;23.50;63.20
4376;DHT22;2202;50.866;12.750;2023-06-10T08:13:03;23.70;62.80
4376;DHT22;2202;50.866;12.750;2023-06-10T08:15:30;23.80;66.40
4376;DHT22;2202;50.866;12.750;2023-06-10T08:17:57;24.20;64.20
4376;DHT22;2202;50.866;12.750;2023-06-10T08:20:24;24.60;60.80
4376;DHT22;2202;50.866;12.750;2023-06-10T08:22:51;24.80;58.20
4376;DHT22;2202;50.866;12.750;2023-06-10T08:25:18;24.80;57.80
4376;DHT22;2202;50.866;12.750;2023-06-10T08:27:47;24.70;60.40
4376;DHT22;2202;50.866;12.750;2023-06-10T08:30:15;25.00;56.70
4376;DHT22;2202;50.866;12.750;2023-06-10T08:32:42;25.00;56.90
4376;DHT22;2202;50.866;12.750;2023-06-10T08:35:09;24.90;56.40
4376;DHT22;2202;50.866;12.750;2023-06-10T08:37:36;25.10;59.90
4376;DHT22;2202;50.866;12.750;2023-06-10T08:40:04;25.50;57.60
4376;DHT22;2202;50.866;12.750;2023-06-10T08:42:34;25.60;54.60
4376;DHT22;2202;50.866;12.750;2023-06-10T08:45:03;25.50;55.90
4376;DHT22;2202;50.866;12.750;2023-06-10T08:47:34;25.80;56.40
4376;DHT22;2202;50.866;12.750;2023-06-10T08:50:03;26.10;54.10
4376;DHT22;2202;50.866;12.750;2023-06-10T08:52:35;26.10;51.60
4376;DHT22;2202;50.866;12.750;2023-06-10T08:55:04;25.90;51.90
4376;DHT22;2202;50.866;12.750;2023-06-10T08:57:34;25.50;53.00
4376;DHT22;2202;50.866;12.750;2023-06-10T09:00:01;25.30;55.50
4376;DHT22;2202;50.866;12.750;2023-06-10T09:02:28;25.50;54.60
4376;DHT22;2202;50.866;12.750;2023-06-10T09:04:57;25.40;53.90
4376;DHT22;2202;50.866;12.750;2023-06-10T09:07:25;25.20;53.40
4376;DHT22;2202;50.866;12.750;2023-06-10T09:09:53;25.10;54.10
4376;DHT22;2202;50.866;12.750;2023-06-10T09:12:21;25.10;56.60
4376;DHT22;2202;50.866;12.750;2023-06-10T09:14:48;25.30;53.50
4376;DHT22;2202;50.866;12.750;2023-06-10T09:17:16;25.20;54.10
4376;DHT22;2202;50.866;12.750;2023-06-10T09:19:44;25.20;54.60
4376;DHT22;2202;50.866;12.750;2023-06-10T09:22:12;25.30;51.80
4376;DHT22;2202;50.866;12.750;2023-06-10T09:24:39;25.30;52.10
4376;DHT22;2202;50.866;12.750;2023-06-10T09:27:08;25.40;55.00
4376;DHT22;2202;50.866;12.750;2023-06-10T09:29:46;25.70;51.60
4376;DHT22;2202;50.866;12.750;2023-06-10T09:32:13;25.60;51.10
4376;DHT22;2202;50.866;12.750;2023-06-10T09:34:40;25.40;52.30
4376;DHT22;2202;50.866;12.750;2023-06-10T09:37:08;25.20;51.60
4376;DHT22;2202;50.866;12.750;2023-06-10T09:39:39;25.10;51.90
4376;DHT22;2202;50.866;12.750;2023-06-10T09:42:16;25.20;55.10
4376;DHT22;2202;50.866;12.750;2023-06-10T09:44:49;25.50;51.80
4376;DHT22;2202;50.866;12.750;2023-06-10T09:47:20;25.70;50.20
4376;DHT22;2202;50.866;12.750;2023-06-10T09:49:48;25.70;50.30
4376;DHT22;2202;50.866;12.750;2023-06-10T09:52:21;25.90;54.40
4376;DHT22;2202;50.866;12.750;2023-06-10T09:54:50;26.20;50.00
4376;DHT22;2202;50.866;12.750;2023-06-10T09:57:17;26.40;47.20
4376;DHT22;2202;50.866;12.750;2023-06-10T09:59:45;26.30;48.60
4376;DHT22;2202;50.866;12.750;2023-06-10T10:02:14;26.20;49.60
4376;DHT22;2202;50.866;12.750;2023-06-10T10:04:41;26.20;51.90
4376;DHT22;2202;50.866;12.750;2023-06-10T10:07:08;26.00;50.90
4376;DHT22;2202;50.866;12.750;2023-06-10T10:09:36;26.10;50.90
4376;DHT22;2202;50.866;12.750;2023-06-10T10:12:09;26.30;51.40
4376;DHT22;2202;50.866;12.750;2023-06-10T10:14:37;26.30;49.60
4376;DHT22;2202;50.866;12.750;2023-06-10T10:17:08;26.20;48.40
4376;DHT22;2202;50.866;12.750;2023-06-10T10:19:43;26.20;50.00
4376;DHT22;2202;50.866;12.750;2023-06-10T10:22:18;26.40;48.40
4376;DHT22;2202;50.866;12.750;2023-06-10T10:24:50;26.50;45.20
4376;DHT22;2202;50.866;12.750;2023-06-10T10:27:26;26.50;45.90
4376;DHT22;2202;50.866;12.750;2023-06-10T10:29:54;26.60;46.40
4376;DHT22;2202;50.866;12.750;2023-06-10T10:32:26;26.30;43.60
4376;DHT22;2202;50.866;12.750;2023-06-10T10:34:59;26.00;47.70
4376;DHT22;2202;50.866;12.750;2023-06-10T10:37:28;26.30;48.00
4376;DHT22;2202;50.866;12.750;2023-06-10T10:39:56;26.60;47.50
4376;DHT22;2202;50.866;12.750;2023-06-10T10:42:25;26.80;46.10
4376;DHT22;2202;50.866;12.750;2023-06-10T10:44:53;26.80;44.70
4376;DHT22;2202;50.866;12.750;2023-06-10T10:47:21;26.60;45.70
4376;DHT22;2202;50.866;12.750;2023-06-10T10:49:51;26.50;45.60
4376;DHT22;2202;50.866;12.750;2023-06-10T10:52:19;26.80;50.30
4376;DHT22;2202;50.866;12.750;2023-06-10T10:54:46;27.00;46.30
4376;DHT22;2202;50.866;12.750;2023-06-10T10:57:15;26.80;47.50
4376;DHT22;2202;50.866;12.750;2023-06-10T11:00:01;26.80;47.30
4376;DHT22;2202;50.866;12.750;2023-06-10T11:02:36;26.60;47.30
4376;DHT22;2202;50.866;12.750;2023-06-10T11:05:05;26.70;48.60
4376;DHT22;2202;50.866;12.750;2023-06-10T11:07:33;26.90;48.40
4376;DHT22;2202;50.866;12.750;2023-06-10T11:10:01;27.20;45.60
4376;DHT22;2202;50.866;12.750;2023-06-10T11:12:41;27.40;47.50
4376;DHT22;2202;50.866;12.750;2023-06-10T11:15:10;27.30;43.10
4376;DHT22;2202;50.866;12.750;2023-06-10T11:17:37;27.30;45.20
4376;DHT22;2202;50.866;12.750;2023-06-10T11:20:04;27.20;44.80
4376;DHT22;2202;50.866;12.750;2023-06-10T11:22:33;27.20;43.60
4376;DHT22;2202;50.866;12.750;2023-06-10T11:24:59;27.50;43.60
4376;DHT22;2202;50.866;12.750;2023-06-10T11:27:37;27.70;41.70
4376;DHT22;2202;50.866;12.750;2023-06-10T11:30:25;27.70;40.10
4376;DHT22;2202;50.866;12.750;2023-06-10T11:32:52;27.30;42.50
4376;DHT22;2202;50.866;12.750;2023-06-10T11:35:19;27.30;42.50
4376;DHT22;2202;50.866;12.750;2023-06-10T11:37:47;27.10;41.80
4376;DHT22;2202;50.866;12.750;2023-06-10T11:40:15;26.70;44.10
4376;DHT22;2202;50.866;12.750;2023-06-10T11:42:42;26.70;44.80
4376;DHT22;2202;50.866;12.750;2023-06-10T11:45:14;26.80;44.80
4376;DHT22;2202;50.866;12.750;2023-06-10T11:47:55;26.80;43.20
4376;DHT22;2202;50.866;12.750;2023-06-10T11:50:28;26.80;43.40
4376;DHT22;2202;50.866;12.750;2023-06-10T11:52:55;26.60;44.30
4376;DHT22;2202;50.866;12.750;2023-06-10T11:55:24;26.80;43.60
4376;DHT22;2202;50.866;12.750;2023-06-10T11:57:50;26.80;42.70
4376;DHT22;2202;50.866;12.750;2023-06-10T12:00:23;26.80;43.40
4376;DHT22;2202;50.866;12.750;2023-06-10T12:02:56;26.90;41.70
4376;DHT22;2202;50.866;12.750;2023-06-10T12:05:25;26.90;41.30
4376;DHT22;2202;50.866;12.750;2023-06-10T12:08:09;26.70;42.70
4376;DHT22;2202;50.866;12.750;2023-06-10T12:10:40;26.80;45.00
4376;DHT22;2202;50.866;12.750;2023-06-10T12:13:08;26.70;42.00
4376;DHT22;2202;50.866;12.750;2023-06-10T12:15:35;26.90;43.80
4376;DHT22;2202;50.866;12.750;2023-06-10T12:18:04;27.10;42.70
4376;DHT22;2202;50.866;12.750;2023-06-10T12:20:32;27.50;42.90
4376;DHT22;2202;50.866;12.750;2023-06-10T12:23:00;28.00;40.80
4376;DHT22;2202;50.866;12.750;2023-06-10T12:25:28;28.20;39.90
4376;DHT22;2202;50.866;12.750;2023-06-10T12:27:56;28.50;38.30
4376;DHT22;2202;50.866;12.750;2023-06-10T12:30:26;28.60;37.70
4376;DHT22;2202;50.866;12.750;2023-06-10T12:32:53;28.00;38.60
4376;DHT22;2202;50.866;12.750;2023-06-10T12:35:23;27.50;41.30
4376;DHT22;2202;50.866;12.750;2023-06-10T12:37:58;27.10;42.70
4376;DHT22;2202;50.866;12.750;2023-06-10T12:40:27;27.10;42.50
4376;DHT22;2202;50.866;12.750;2023-06-10T12:42:54;27.00;42.40
4376;DHT22;2202;50.866;12.750;2023-06-10T12:45:27;27.20;39.30
4376;DHT22;2202;50.866;12.750;2023-06-10T12:48:04;27.50;37.60
4376;DHT22;2202;50.866;12.750;2023-06-10T12:50:33;27.70;37.20
4376;DHT22;2202;50.866;12.750;2023-06-10T12:53:00;27.70;37.90
4376;DHT22;2202;50.866;12.750;2023-06-10T12:55:27;28.00;39.70
4376;DHT22;2202;50.866;12.750;2023-06-10T12:57:54;28.20;35.80
4376;DHT22;2202;50.866;12.750;2023-06-10T13:00:22;28.50;37.00
4376;DHT22;2202;50.866;12.750;2023-06-10T13:02:51;28.80;38.50
4376;DHT22;2202;50.866;12.750;2023-06-10T13:05:18;29.10;35.10
4376;DHT22;2202;50.866;12.750;2023-06-10T13:07:47;28.90;35.10
4376;DHT22;2202;50.866;12.750;2023-06-10T13:10:15;28.70;37.20
4376;DHT22;2202;50.866;12.750;2023-06-10T13:12:42;29.00;38.30
4376;DHT22;2202;50.866;12.750;2023-06-10T13:15:09;28.80;34.40
4376;DHT22;2202;50.866;12.750;2023-06-10T13:17:37;28.70;35.40
4376;DHT22;2202;50.866;12.750;2023-06-10T13:20:05;28.70;34.90
4376;DHT22;2202;50.866;12.750;2023-06-10T13:22:33;28.60;37.70
4376;DHT22;2202;50.866;12.750;2023-06-10T13:25:03;28.70;34.90
4376;DHT22;2202;50.866;12.750;2023-06-10T13:27:32;29.10;36.00
4376;DHT22;2202;50.866;12.750;2023-06-10T13:29:59;29.30;36.70
4376;DHT22;2202;50.866;12.750;2023-06-10T13:32:26;29.20;37.60
4376;DHT22;2202;50.866;12.750;2023-06-10T13:34:53;29.20;38.60
4376;DHT22;2202;50.866;12.750;2023-06-10T13:37:20;29.40;38.50
4376;DHT22;2202;50.866;12.750;2023-06-10T13:39:47;29.40;36.00
4376;DHT22;2202;50.866;12.750;2023-06-10T13:42:17;29.00;35.40
4376;DHT22;2202;50.866;12.750;2023-06-10T13:44:44;28.80;38.10
4376;DHT22;2202;50.866;12.750;2023-06-10T13:47:12;29.00;38.60
4376;DHT22;2202;50.866;12.750;2023-06-10T13:49:39;29.10;33.30
4376;DHT22;2202;50.866;12.750;2023-06-10T13:52:07;29.10;33.50
4376;DHT22;2202;50.866;12.750;2023-06-10T13:54:34;29.00;38.10
4376;DHT22;2202;50.866;12.750;2023-06-10T13:57:02;29.00;36.00
4376;DHT22;2202;50.866;12.750;2023-06-10T13:59:30;29.00;35.30
4376;DHT22;2202;50.866;12.750;2023-06-10T14:01:57;29.10;32.10
4376;DHT22;2202;50.866;12.750;2023-06-10T14:04:24;28.90;30.60
4376;DHT22;2202;50.866;12.750;2023-06-10T14:06:51;28.50;31.40
4376;DHT22;2202;50.866;12.750;2023-06-10T14:09:18;28.40;33.10
4376;DHT22;2202;50.866;12.750;2023-06-10T14:11:45;28.60;32.20
4376;DHT22;2202;50.866;12.750;2023-06-10T14:14:13;28.90;33.70
4376;DHT22;2202;50.866;12.750;2023-06-10T14:16:42;29.20;30.80
4376;DHT22;2202;50.866;12.750;2023-06-10T14:19:08;28.90;34.90
4376;DHT22;2202;50.866;12.750;2023-06-10T14:21:35;28.50;36.50
4376;DHT22;2202;50.866;12.750;2023-06-10T14:24:02;28.20;36.50
4376;DHT22;2202;50.866;12.750;2023-06-10T14:26:29;27.90;36.10
4376;DHT22;2202;50.866;12.750;2023-06-10T14:28:58;27.60;37.90
4376;DHT22;2202;50.866;12.750;2023-06-10T14:31:25;27.40;37.00
4376;DHT22;2202;50.866;12.750;2023-06-10T14:33:53;27.20;36.10
4376;DHT22;2202;50.866;12.750;2023-06-10T14:36:20;27.00;39.90
4376;DHT22;2202;50.866;12.750;2023-06-10T14:38:46;26.80;36.90
4376;DHT22;2202;50.866;12.750;2023-06-10T14:41:13;26.80;34.60
4376;DHT22;2202;50.866;12.750;2023-06-10T14:43:40;26.60;34.60
4376;DHT22;2202;50.866;12.750;2023-06-10T14:46:07;26.40;31.90
4376;DHT22;2202;50.866;12.750;2023-06-10T14:48:34;26.10;33.10
4376;DHT22;2202;50.866;12.750;2023-06-10T14:51:03;26.00;33.00
4376;DHT22;2202;50.866;12.750;2023-06-10T14:53:29;25.80;30.50
4376;DHT22;2202;50.866;12.750;2023-06-10T14:55:56;25.70;33.00
4376;DHT22;2202;50.866;12.750;2023-06-10T14:58:23;25.70;32.40
4376;DHT22;2202;50.866;12.750;2023-06-10T15:00:50;25.50;34.60
4376;DHT22;2202;50.866;12.750;2023-06-10T15:03:17;25.50;35.30
4376;DHT22;2202;50.866;12.750;2023-06-10T15:05:43;25.40;35.80
4376;DHT22;2202;50.866;12.750;2023-06-10T15:08:12;25.40;36.50
4376;DHT22;2202;50.866;12.750;2023-06-10T15:10:38;25.50;36.30
4376;DHT22;2202;50.866;12.750;2023-06-10T15:13:05;25.70;37.70
4376;DHT22;2202;50.866;12.750;2023-06-10T15:15:32;25.90;35.10
4376;DHT22;2202;50.866;12.750;2023-06-10T15:17:59;26.00;33.80
4376;DHT22;2202;50.866;12.750;2023-06-10T15:20:26;26.20;33.80
4376;DHT22;2202;50.866;12.750;2023-06-10T15:22:53;26.40;31.70
4376;DHT22;2202;50.866;12.750;2023-06-10T15:25:21;26.60;32.10
4376;DHT22;2202;50.866;12.750;2023-06-10T15:27:48;26.80;31.40
4376;DHT22;2202;50.866;12.750;2023-06-10T15:30:15;27.00;30.60
4376;DHT22;2202;50.866;12.750;2023-06-10T15:32:42;27.10;30.30
4376;DHT22;2202;50.866;12.750;2023-06-10T15:35:09;27.30;29.70
4376;DHT22;2202;50.866;12.750;2023-06-10T15:37:36;27.30;29.20
4376;DHT22;2202;50.866;12.750;2023-06-10T15:40:03;27.40;29.80
4376;DHT22;2202;50.866;12.750;2023-06-10T15:42:31;27.50;29.30
4376;DHT22;2202;50.866;12.750;2023-06-10T15:44:58;27.50;29.10
4376;DHT22;2202;50.866;12.750;2023-06-10T15:47:25;27.50;30.60
4376;DHT22;2202;50.866;12.750;2023-06-10T15:49:52;27.60;29.90